createdAt,value
2022-11-08T00:01:35.671Z,93
2022-11-08T00:06:43.237Z,93
2022-11-08T00:11:50.928Z,93.5
2022-11-08T00:16:58.658Z,93
2022-11-08T00:22:06.293Z,93
2022-11-08T00:27:13.998Z,94
2022-11-08T00:32:21.682Z,93.5
2022-11-08T00:37:29.360Z,93.5
2022-11-08T00:42:37.010Z,94
2022-11-08T00:47:45.303Z,94
2022-11-08T00:52:53.552Z,93.5
2022-11-08T00:58:01.820Z,94
2022-11-08T01:03:10.124Z,94
2022-11-08T01:08:18.378Z,94.5
2022-11-08T01:13:26.625Z,95
2022-11-08T01:18:34.920Z,95.5
2022-11-08T01:23:43.206Z,95
2022-11-08T01:28:51.450Z,95.5
2022-11-08T01:33:59.761Z,96
2022-11-08T01:39:08.046Z,96.5
2022-11-08T01:44:16.322Z,96
2022-11-08T01:49:24.721Z,96.5
2022-11-08T01:54:34.027Z,96.5
2022-11-08T02:04:49.224Z,96.5
2022-11-08T02:09:56.731Z,97
2022-11-08T02:15:04.235Z,96.5
2022-11-08T02:20:11.740Z,97
2022-11-08T02:25:19.231Z,96.5
2022-11-08T02:30:26.691Z,97.5
2022-11-08T02:35:34.170Z,97.5
2022-11-08T02:40:41.674Z,97.5
2022-11-08T02:45:49.214Z,97.5
2022-11-08T02:50:56.694Z,98.5
2022-11-08T02:56:04.207Z,98
2022-11-08T03:01:11.676Z,97
2022-11-08T03:06:19.253Z,98.5
2022-11-08T03:11:26.671Z,99
2022-11-08T03:16:34.125Z,99
2022-11-08T03:26:49.202Z,99.5
2022-11-08T03:31:56.760Z,99.5
2022-11-08T03:37:04.329Z,99.5
2022-11-08T03:42:11.804Z,99
2022-11-08T03:47:19.334Z,99
2022-11-08T03:57:34.377Z,99.5
2022-11-08T04:02:41.914Z,99.5
2022-11-08T04:18:05.205Z,99.5
2022-11-08T04:23:12.926Z,99.5
2022-11-08T04:28:20.717Z,99.5
2022-11-08T04:38:36.294Z,99.5
2022-11-08T04:43:44.017Z,99.5
2022-11-08T04:48:51.764Z,99.5
2022-11-08T04:53:59.516Z,99.5
2022-11-08T05:04:14.999Z,99.5
2022-11-08T05:09:22.829Z,99.5
2022-11-08T05:14:31.173Z,99.5
2022-11-08T05:19:39.478Z,99.5
2022-11-08T05:24:47.838Z,99.5
2022-11-08T05:29:56.325Z,99.5
2022-11-08T05:35:04.546Z,99.5
2022-11-08T05:40:12.962Z,99.5
2022-11-08T05:45:21.284Z,99.5
2022-11-08T05:50:29.639Z,99.5
2022-11-08T05:55:37.823Z,99.5
2022-11-08T06:00:46.214Z,99.5
2022-11-08T06:05:54.564Z,99.5
2022-11-08T06:11:02.803Z,99.5
2022-11-08T06:16:11.120Z,99.5
2022-11-08T06:21:20.464Z,99.5
2022-11-08T06:26:27.885Z,99.5
2022-11-08T06:31:35.209Z,99.5
2022-11-08T06:36:42.688Z,99.5
2022-11-08T06:41:50.075Z,99.5
2022-11-08T06:46:57.459Z,99.5
2022-11-08T06:52:04.720Z,99.5
2022-11-08T06:57:11.992Z,99.5
2022-11-08T07:02:19.288Z,99.5
2022-11-08T07:07:26.704Z,99.5
2022-11-08T07:12:34.082Z,98.5
2022-11-08T07:17:41.254Z,97.5
2022-11-08T07:22:48.740Z,95
2022-11-08T07:27:55.910Z,89.5
2022-11-08T07:33:03.188Z,87.5
2022-11-08T07:38:10.398Z,87
2022-11-08T07:43:17.670Z,87.5
2022-11-08T07:48:24.966Z,85.5
2022-11-08T07:53:32.077Z,84.5
2022-11-08T07:58:39.255Z,84
2022-11-08T08:03:46.401Z,81
2022-11-08T08:08:53.558Z,81
2022-11-08T08:14:00.694Z,79
2022-11-08T08:19:07.841Z,79
2022-11-08T08:24:14.962Z,79.5
2022-11-08T08:29:22.082Z,80
2022-11-08T08:34:29.341Z,80
2022-11-08T08:39:36.558Z,78.5
2022-11-08T08:44:43.832Z,80
2022-11-08T08:49:51.098Z,79.5
2022-11-08T08:54:58.326Z,79
2022-11-08T09:00:05.645Z,75.5
2022-11-08T09:05:12.775Z,77
2022-11-08T09:10:20.102Z,74
2022-11-08T09:15:27.224Z,75
2022-11-08T09:20:34.376Z,73.5
2022-11-08T09:25:41.510Z,72.5
2022-11-08T09:30:48.641Z,69
2022-11-08T09:35:55.850Z,69.5
2022-11-08T09:41:03.211Z,76
2022-11-08T09:46:10.409Z,75.5
2022-11-08T09:51:17.657Z,71
2022-11-08T09:56:25.068Z,73
2022-11-08T10:01:32.487Z,75
2022-11-08T10:06:39.707Z,72.5
2022-11-08T10:11:47.093Z,71
2022-11-08T10:16:54.370Z,73
2022-11-08T10:22:01.715Z,69.5
2022-11-08T10:27:08.990Z,70.5
2022-11-08T10:32:16.406Z,75
2022-11-08T10:37:23.702Z,79.5
2022-11-08T10:42:31.030Z,77
2022-11-08T10:47:39.113Z,72
2022-11-08T10:52:45.607Z,70.5
2022-11-08T10:57:52.706Z,68
2022-11-08T11:02:59.634Z,67
2022-11-08T11:08:06.651Z,73
2022-11-08T11:13:13.401Z,66
2022-11-08T11:18:20.438Z,65
2022-11-08T11:23:27.201Z,65
2022-11-08T11:28:34.070Z,62.5
2022-11-08T11:33:40.961Z,61.5
2022-11-08T11:38:47.792Z,63
2022-11-08T11:43:54.647Z,64.5
2022-11-08T11:49:01.440Z,65
2022-11-08T11:54:08.361Z,61.5
2022-11-08T11:59:15.121Z,61.5
2022-11-08T12:04:21.935Z,61.5
2022-11-08T12:09:28.792Z,59
2022-11-08T12:14:35.636Z,58.5
2022-11-08T12:19:42.461Z,57.5
2022-11-08T12:24:49.315Z,58
2022-11-08T12:29:56.118Z,57.5
2022-11-08T12:35:02.876Z,58
2022-11-08T12:40:09.800Z,56
2022-11-08T12:45:16.433Z,57
2022-11-08T12:50:23.232Z,60
2022-11-08T12:55:30.030Z,65
2022-11-08T13:00:37.131Z,60.5
2022-11-08T13:05:43.999Z,59.5
2022-11-08T13:10:50.956Z,63.5
2022-11-08T13:15:57.994Z,66
2022-11-08T13:21:04.991Z,64.5
2022-11-08T13:26:11.986Z,65.5
2022-11-08T13:31:19.036Z,67.5
2022-11-08T13:36:26.029Z,68
2022-11-08T13:41:33.034Z,64
2022-11-08T13:46:40.064Z,64.5
2022-11-08T13:51:47.202Z,64.5
2022-11-08T13:56:54.068Z,63
2022-11-08T14:02:01.081Z,63
2022-11-08T14:07:08.280Z,66.5
2022-11-08T14:12:15.581Z,70.5
2022-11-08T14:17:22.730Z,70
2022-11-08T14:22:30.065Z,71
2022-11-08T14:27:37.424Z,71.5
2022-11-08T14:32:44.676Z,72
2022-11-08T14:37:52.014Z,72.5
2022-11-08T14:42:59.366Z,73
2022-11-08T14:48:06.729Z,74
2022-11-08T14:53:14.114Z,75
2022-11-08T14:58:21.520Z,75.5
2022-11-08T15:03:28.844Z,76.5
2022-11-08T15:08:36.248Z,76
2022-11-08T15:13:44.196Z,76.5
2022-11-08T15:18:52.194Z,76
2022-11-08T15:23:58.851Z,76.5
2022-11-08T15:29:05.927Z,77
2022-11-08T15:34:12.966Z,78
2022-11-08T15:39:20.042Z,78.5
2022-11-08T15:44:27.127Z,78
2022-11-08T15:49:34.214Z,77.5
2022-11-08T15:54:41.280Z,77.5
2022-11-08T15:59:48.329Z,78
2022-11-08T16:04:55.417Z,76.5
2022-11-08T16:10:02.535Z,77
2022-11-08T16:15:09.695Z,76.5
2022-11-08T16:20:16.849Z,75
2022-11-08T16:25:24.058Z,74
2022-11-08T16:30:31.116Z,74
2022-11-08T16:35:38.299Z,72.5
2022-11-08T16:40:45.378Z,73.5
2022-11-08T16:45:52.516Z,74
2022-11-08T16:50:59.657Z,74.5
2022-11-08T16:56:06.824Z,73.5
2022-11-08T17:01:13.918Z,73.5
2022-11-08T17:06:21.047Z,74
2022-11-08T17:11:28.210Z,73
2022-11-08T17:16:35.395Z,73.5
2022-11-08T17:21:42.569Z,73
2022-11-08T17:26:49.786Z,74
2022-11-08T17:31:57.107Z,75
2022-11-08T17:37:04.481Z,73.5
2022-11-08T17:47:19.058Z,72
2022-11-08T17:52:26.298Z,71.5
2022-11-08T17:57:33.878Z,71.5
2022-11-08T18:02:40.770Z,70
2022-11-08T18:07:48.046Z,70.5
2022-11-08T18:12:55.441Z,69.5
2022-11-08T18:18:02.874Z,69.5
2022-11-08T18:23:09.988Z,70
2022-11-08T18:28:17.354Z,69
2022-11-08T18:33:24.690Z,68
2022-11-08T18:38:32.156Z,68
2022-11-08T18:43:39.535Z,69
2022-11-08T18:48:47.127Z,69
2022-11-08T18:53:54.479Z,69
2022-11-08T18:59:01.961Z,70
2022-11-08T19:04:09.613Z,69.5
2022-11-08T19:09:17.134Z,69.5
2022-11-08T19:14:24.712Z,69.5
2022-11-08T19:19:31.914Z,68.5
2022-11-08T19:24:39.513Z,69
2022-11-08T19:29:47.104Z,68.5
2022-11-08T19:34:54.470Z,69
2022-11-08T19:40:02.086Z,69
2022-11-08T19:45:10.131Z,69
2022-11-08T19:50:16.945Z,69
2022-11-08T19:55:23.866Z,69.5
2022-11-08T20:00:31.221Z,70
2022-11-08T20:05:38.163Z,69.5
2022-11-08T20:10:45.283Z,69
2022-11-08T20:15:52.386Z,68.5
2022-11-08T20:20:59.510Z,69
2022-11-08T20:26:06.674Z,70.5
2022-11-08T20:36:20.937Z,70
2022-11-08T20:41:28.081Z,70
2022-11-08T20:46:35.277Z,70.5
2022-11-08T20:51:42.413Z,69.5
2022-11-08T20:56:49.518Z,70
2022-11-08T21:01:56.632Z,70.5
2022-11-08T21:07:03.767Z,71.5
2022-11-08T21:12:10.958Z,71.5
2022-11-08T21:17:18.093Z,72
2022-11-08T21:22:25.242Z,72
2022-11-08T21:27:32.399Z,72.5
2022-11-08T21:32:39.504Z,72
2022-11-08T21:37:46.634Z,72
2022-11-08T21:42:53.781Z,71.5
2022-11-08T21:48:00.920Z,71
2022-11-08T21:53:08.056Z,71.5
2022-11-08T21:58:15.366Z,71.5
2022-11-08T22:03:22.635Z,71.5
2022-11-08T22:08:29.891Z,71.5
2022-11-08T22:13:37.169Z,71
2022-11-08T22:23:51.695Z,71.5
2022-11-08T22:28:58.977Z,71.5
2022-11-08T22:34:06.235Z,72.5
2022-11-08T22:39:13.494Z,73
2022-11-08T22:44:20.734Z,74.5
2022-11-08T22:49:28.021Z,74.5
2022-11-08T22:54:35.320Z,74
2022-11-08T22:59:42.603Z,75.5
2022-11-08T23:04:50.154Z,76.5
2022-11-08T23:09:57.688Z,77.5
2022-11-08T23:15:05.201Z,77
2022-11-08T23:20:12.720Z,77
2022-11-08T23:25:20.258Z,77.5
2022-11-08T23:30:27.818Z,77
2022-11-08T23:35:35.355Z,77
2022-11-08T23:40:42.888Z,76
2022-11-08T23:45:50.448Z,80
2022-11-08T23:50:58.006Z,81
2022-11-08T23:56:05.568Z,84.5
